sensor_id;sensor_type;location;lat;lon;timestamp;P1;durP1;ratioP1;P2;durP2;ratioP2
40953;SDS011;26686;50.130;8.710;2023-02-03T00:02:15;6.90;;;3.38;;
40953;SDS011;26686;50.130;8.710;2023-02-03T00:07:17;5.45;;;2.67;;
40953;SDS011;26686;50.130;8.710;2023-02-03T00:12:19;6.78;;;3.30;;
40953;SDS011;26686;50.130;8.710;2023-02-03T00:17:20;11.02;;;3.95;;
40953;SDS011;26686;50.130;8.710;2023-02-03T00:22:22;6.65;;;5.40;;
40953;SDS011;26686;50.130;8.710;2023-02-03T00:27:23;8.50;;;5.25;;
40953;SDS011;26686;50.130;8.710;2023-02-03T00:32:25;8.38;;;4.53;;
40953;SDS011;26686;50.130;8.710;2023-02-03T00:37:26;4.13;;;2.55;;
40953;SDS011;26686;50.130;8.710;2023-02-03T00:42:28;5.55;;;2.65;;
40953;SDS011;26686;50.130;8.710;2023-02-03T00:47:30;6.65;;;2.58;;
40953;SDS011;26686;50.130;8.710;2023-02-03T00:52:31;4.63;;;1.90;;
40953;SDS011;26686;50.130;8.710;2023-02-03T00:57:32;3.15;;;1.67;;
40953;SDS011;26686;50.130;8.710;2023-02-03T01:02:34;5.30;;;1.75;;
40953;SDS011;26686;50.130;8.710;2023-02-03T01:07:36;4.55;;;2.00;;
40953;SDS011;26686;50.130;8.710;2023-02-03T01:12:40;3.73;;;2.30;;
40953;SDS011;26686;50.130;8.710;2023-02-03T01:17:41;2.90;;;1.75;;
40953;SDS011;26686;50.130;8.710;2023-02-03T01:22:42;2.17;;;1.55;;
40953;SDS011;26686;50.130;8.710;2023-02-03T01:27:44;3.10;;;1.80;;
40953;SDS011;26686;50.130;8.710;2023-02-03T01:32:45;3.25;;;1.83;;
40953;SDS011;26686;50.130;8.710;2023-02-03T01:37:47;3.22;;;1.40;;
40953;SDS011;26686;50.130;8.710;2023-02-03T01:42:48;4.10;;;1.80;;
40953;SDS011;26686;50.130;8.710;2023-02-03T01:47:51;3.88;;;1.83;;
40953;SDS011;26686;50.130;8.710;2023-02-03T01:52:57;2.35;;;1.50;;
40953;SDS011;26686;50.130;8.710;2023-02-03T01:58:07;1.88;;;1.40;;
40953;SDS011;26686;50.130;8.710;2023-02-03T02:03:12;2.80;;;1.25;;
40953;SDS011;26686;50.130;8.710;2023-02-03T02:08:15;1.98;;;0.88;;
40953;SDS011;26686;50.130;8.710;2023-02-03T02:13:20;2.40;;;1.65;;
40953;SDS011;26686;50.130;8.710;2023-02-03T02:45:53;1.95;;;0.80;;
40953;SDS011;26686;50.130;8.710;2023-02-03T02:50:59;1.15;;;0.73;;
40953;SDS011;26686;50.130;8.710;2023-02-03T02:56:04;2.72;;;0.80;;
40953;SDS011;26686;50.130;8.710;2023-02-03T03:01:09;2.47;;;1.48;;
40953;SDS011;26686;50.130;8.710;2023-02-03T03:06:12;4.30;;;1.08;;
40953;SDS011;26686;50.130;8.710;2023-02-03T03:11:18;1.15;;;0.82;;
40953;SDS011;26686;50.130;8.710;2023-02-03T03:16:22;1.80;;;0.88;;
40953;SDS011;26686;50.130;8.710;2023-02-03T03:21:30;1.50;;;0.60;;
40953;SDS011;26686;50.130;8.710;2023-02-03T03:26:41;0.70;;;0.50;;
40953;SDS011;26686;50.130;8.710;2023-02-03T03:31:50;2.42;;;0.75;;
40953;SDS011;26686;50.130;8.710;2023-02-03T03:42:18;0.80;;;0.50;;
40953;SDS011;26686;50.130;8.710;2023-02-03T03:47:29;1.90;;;0.70;;
40953;SDS011;26686;50.130;8.710;2023-02-03T03:52:35;1.17;;;0.60;;
40953;SDS011;26686;50.130;8.710;2023-02-03T03:57:38;1.83;;;0.70;;
40953;SDS011;26686;50.130;8.710;2023-02-03T04:03:04;1.05;;;0.80;;
40953;SDS011;26686;50.130;8.710;2023-02-03T04:08:11;1.50;;;0.93;;
40953;SDS011;26686;50.130;8.710;2023-02-03T04:13:13;1.98;;;0.50;;
40953;SDS011;26686;50.130;8.710;2023-02-03T04:18:17;2.13;;;0.60;;
40953;SDS011;26686;50.130;8.710;2023-02-03T04:23:18;2.35;;;0.75;;
40953;SDS011;26686;50.130;8.710;2023-02-03T04:28:19;1.92;;;0.70;;
40953;SDS011;26686;50.130;8.710;2023-02-03T04:33:21;0.80;;;0.60;;
40953;SDS011;26686;50.130;8.710;2023-02-03T04:38:22;0.90;;;0.60;;
40953;SDS011;26686;50.130;8.710;2023-02-03T04:43:23;1.35;;;0.47;;
40953;SDS011;26686;50.130;8.710;2023-02-03T04:48:25;0.63;;;0.47;;
40953;SDS011;26686;50.130;8.710;2023-02-03T04:53:27;1.38;;;0.75;;
40953;SDS011;26686;50.130;8.710;2023-02-03T04:58:29;1.58;;;0.90;;
40953;SDS011;26686;50.130;8.710;2023-02-03T05:03:30;1.05;;;0.50;;
40953;SDS011;26686;50.130;8.710;2023-02-03T05:08:32;0.90;;;0.60;;
40953;SDS011;26686;50.130;8.710;2023-02-03T05:13:33;1.05;;;0.80;;
40953;SDS011;26686;50.130;8.710;2023-02-03T05:18:35;2.53;;;0.82;;
40953;SDS011;26686;50.130;8.710;2023-02-03T05:23:36;1.10;;;0.55;;
40953;SDS011;26686;50.130;8.710;2023-02-03T05:28:38;1.02;;;0.60;;
40953;SDS011;26686;50.130;8.710;2023-02-03T05:33:39;0.88;;;0.65;;
40953;SDS011;26686;50.130;8.710;2023-02-03T05:38:41;1.52;;;0.60;;
40953;SDS011;26686;50.130;8.710;2023-02-03T05:43:42;2.15;;;0.80;;
40953;SDS011;26686;50.130;8.710;2023-02-03T05:48:46;1.83;;;0.90;;
40953;SDS011;26686;50.130;8.710;2023-02-03T05:53:47;1.13;;;0.60;;
40953;SDS011;26686;50.130;8.710;2023-02-03T05:58:49;1.30;;;0.85;;
40953;SDS011;26686;50.130;8.710;2023-02-03T06:03:53;2.40;;;0.80;;
40953;SDS011;26686;50.130;8.710;2023-02-03T06:08:55;1.52;;;1.05;;
40953;SDS011;26686;50.130;8.710;2023-02-03T06:13:57;2.17;;;0.93;;
40953;SDS011;26686;50.130;8.710;2023-02-03T06:18:59;3.50;;;0.90;;
40953;SDS011;26686;50.130;8.710;2023-02-03T06:24:02;1.77;;;1.10;;
40953;SDS011;26686;50.130;8.710;2023-02-03T06:29:04;3.03;;;0.75;;
40953;SDS011;26686;50.130;8.710;2023-02-03T06:34:05;4.78;;;1.20;;
40953;SDS011;26686;50.130;8.710;2023-02-03T06:39:06;3.30;;;1.00;;
40953;SDS011;26686;50.130;8.710;2023-02-03T06:44:08;2.50;;;1.00;;
40953;SDS011;26686;50.130;8.710;2023-02-03T06:49:09;4.57;;;1.13;;
40953;SDS011;26686;50.130;8.710;2023-02-03T06:54:11;2.85;;;0.77;;
40953;SDS011;26686;50.130;8.710;2023-02-03T06:59:13;3.72;;;1.23;;
40953;SDS011;26686;50.130;8.710;2023-02-03T07:04:14;4.38;;;1.35;;
40953;SDS011;26686;50.130;8.710;2023-02-03T07:09:17;3.83;;;2.25;;
40953;SDS011;26686;50.130;8.710;2023-02-03T07:14:18;2.33;;;1.17;;
40953;SDS011;26686;50.130;8.710;2023-02-03T07:19:20;1.70;;;1.20;;
40953;SDS011;26686;50.130;8.710;2023-02-03T07:24:21;1.75;;;1.10;;
40953;SDS011;26686;50.130;8.710;2023-02-03T07:29:22;3.42;;;1.30;;
40953;SDS011;26686;50.130;8.710;2023-02-03T07:34:24;4.13;;;1.30;;
40953;SDS011;26686;50.130;8.710;2023-02-03T07:39:25;1.70;;;1.10;;
40953;SDS011;26686;50.130;8.710;2023-02-03T07:44:27;1.65;;;0.70;;
40953;SDS011;26686;50.130;8.710;2023-02-03T07:49:28;4.80;;;0.90;;
40953;SDS011;26686;50.130;8.710;2023-02-03T07:54:29;2.85;;;1.00;;
40953;SDS011;26686;50.130;8.710;2023-02-03T07:59:31;3.38;;;1.33;;
40953;SDS011;26686;50.130;8.710;2023-02-03T08:04:32;2.78;;;1.20;;
40953;SDS011;26686;50.130;8.710;2023-02-03T08:09:33;3.65;;;1.15;;
40953;SDS011;26686;50.130;8.710;2023-02-03T08:14:35;2.30;;;1.23;;
40953;SDS011;26686;50.130;8.710;2023-02-03T08:19:36;2.47;;;0.90;;
40953;SDS011;26686;50.130;8.710;2023-02-03T08:24:38;1.73;;;0.90;;
40953;SDS011;26686;50.130;8.710;2023-02-03T08:29:40;2.35;;;1.00;;
40953;SDS011;26686;50.130;8.710;2023-02-03T08:34:41;1.73;;;0.95;;
40953;SDS011;26686;50.130;8.710;2023-02-03T08:39:43;4.75;;;1.38;;
40953;SDS011;26686;50.130;8.710;2023-02-03T08:44:45;3.42;;;0.93;;
40953;SDS011;26686;50.130;8.710;2023-02-03T08:49:46;1.67;;;0.65;;
40953;SDS011;26686;50.130;8.710;2023-02-03T08:54:48;1.35;;;0.93;;
40953;SDS011;26686;50.130;8.710;2023-02-03T08:59:49;2.45;;;0.88;;
40953;SDS011;26686;50.130;8.710;2023-02-03T09:04:51;2.50;;;1.20;;
40953;SDS011;26686;50.130;8.710;2023-02-03T09:09:52;2.72;;;1.17;;
40953;SDS011;26686;50.130;8.710;2023-02-03T09:14:54;4.70;;;0.95;;
40953;SDS011;26686;50.130;8.710;2023-02-03T09:19:55;1.27;;;0.70;;
40953;SDS011;26686;50.130;8.710;2023-02-03T09:24:57;3.70;;;0.77;;
40953;SDS011;26686;50.130;8.710;2023-02-03T09:29:58;1.30;;;0.65;;
40953;SDS011;26686;50.130;8.710;2023-02-03T09:35:00;2.50;;;0.55;;
40953;SDS011;26686;50.130;8.710;2023-02-03T09:40:02;2.72;;;0.90;;
40953;SDS011;26686;50.130;8.710;2023-02-03T09:50:18;2.65;;;0.52;;
40953;SDS011;26686;50.130;8.710;2023-02-03T10:00:34;3.08;;;0.95;;
40953;SDS011;26686;50.130;8.710;2023-02-03T10:05:49;2.78;;;0.77;;
40953;SDS011;26686;50.130;8.710;2023-02-03T10:11:12;3.47;;;1.10;;
40953;SDS011;26686;50.130;8.710;2023-02-03T10:16:28;3.78;;;0.77;;
40953;SDS011;26686;50.130;8.710;2023-02-03T10:21:51;3.60;;;0.87;;
40953;SDS011;26686;50.130;8.710;2023-02-03T10:26:56;2.25;;;0.50;;
40953;SDS011;26686;50.130;8.710;2023-02-03T10:31:58;3.40;;;0.82;;
40953;SDS011;26686;50.130;8.710;2023-02-03T10:42:33;3.25;;;0.70;;
40953;SDS011;26686;50.130;8.710;2023-02-03T10:47:53;2.83;;;0.40;;
40953;SDS011;26686;50.130;8.710;2023-02-03T10:58:21;1.95;;;0.70;;
40953;SDS011;26686;50.130;8.710;2023-02-03T11:03:27;0.65;;;0.30;;
40953;SDS011;26686;50.130;8.710;2023-02-03T11:08:33;1.38;;;0.73;;
40953;SDS011;26686;50.130;8.710;2023-02-03T11:13:36;1.35;;;0.57;;
40953;SDS011;26686;50.130;8.710;2023-02-03T11:18:39;2.45;;;0.60;;
40953;SDS011;26686;50.130;8.710;2023-02-03T11:24:17;1.95;;;0.60;;
40953;SDS011;26686;50.130;8.710;2023-02-03T11:29:21;4.35;;;0.68;;
40953;SDS011;26686;50.130;8.710;2023-02-03T11:34:32;3.60;;;0.57;;
40953;SDS011;26686;50.130;8.710;2023-02-03T11:39:37;1.95;;;0.52;;
40953;SDS011;26686;50.130;8.710;2023-02-03T11:44:39;4.70;;;1.75;;
40953;SDS011;26686;50.130;8.710;2023-02-03T11:55:53;0.95;;;0.60;;
40953;SDS011;26686;50.130;8.710;2023-02-03T12:11:39;2.05;;;0.60;;
40953;SDS011;26686;50.130;8.710;2023-02-03T12:22:11;1.55;;;0.40;;
40953;SDS011;26686;50.130;8.710;2023-02-03T12:32:44;0.82;;;0.50;;
40953;SDS011;26686;50.130;8.710;2023-02-03T12:43:15;5.13;;;0.80;;
40953;SDS011;26686;50.130;8.710;2023-02-03T12:48:19;3.72;;;0.63;;
40953;SDS011;26686;50.130;8.710;2023-02-03T12:53:29;1.35;;;0.28;;
40953;SDS011;26686;50.130;8.710;2023-02-03T13:03:41;1.92;;;0.60;;
40953;SDS011;26686;50.130;8.710;2023-02-03T13:09:07;1.95;;;0.57;;
40953;SDS011;26686;50.130;8.710;2023-02-03T13:14:26;3.28;;;0.60;;
40953;SDS011;26686;50.130;8.710;2023-02-03T13:19:37;1.92;;;0.57;;
40953;SDS011;26686;50.130;8.710;2023-02-03T13:24:46;2.60;;;0.60;;
40953;SDS011;26686;50.130;8.710;2023-02-03T13:30:03;2.08;;;0.70;;
40953;SDS011;26686;50.130;8.710;2023-02-03T13:40:47;1.45;;;0.60;;
40953;SDS011;26686;50.130;8.710;2023-02-03T13:46:00;3.15;;;0.73;;
40953;SDS011;26686;50.130;8.710;2023-02-03T13:51:07;2.20;;;1.38;;
40953;SDS011;26686;50.130;8.710;2023-02-03T13:56:20;1.98;;;0.80;;
40953;SDS011;26686;50.130;8.710;2023-02-03T14:01:28;1.15;;;0.88;;
40953;SDS011;26686;50.130;8.710;2023-02-03T14:11:38;1.33;;;0.65;;
40953;SDS011;26686;50.130;8.710;2023-02-03T14:16:42;1.23;;;0.50;;
40953;SDS011;26686;50.130;8.710;2023-02-03T14:21:52;2.17;;;0.43;;
40953;SDS011;26686;50.130;8.710;2023-02-03T14:26:59;2.28;;;0.50;;
40953;SDS011;26686;50.130;8.710;2023-02-03T14:32:04;2.03;;;0.50;;
40953;SDS011;26686;50.130;8.710;2023-02-03T14:37:18;1.95;;;1.42;;
40953;SDS011;26686;50.130;8.710;2023-02-03T14:58:50;2.92;;;0.93;;
40953;SDS011;26686;50.130;8.710;2023-02-03T15:14:48;1.80;;;0.80;;
40953;SDS011;26686;50.130;8.710;2023-02-03T15:19:50;5.80;;;1.08;;
40953;SDS011;26686;50.130;8.710;2023-02-03T15:24:57;1.00;;;0.70;;
40953;SDS011;26686;50.130;8.710;2023-02-03T15:35:29;1.30;;;0.70;;
40953;SDS011;26686;50.130;8.710;2023-02-03T15:40:34;2.35;;;0.82;;
40953;SDS011;26686;50.130;8.710;2023-02-03T15:45:39;2.53;;;0.80;;
40953;SDS011;26686;50.130;8.710;2023-02-03T15:50:47;1.10;;;0.73;;
40953;SDS011;26686;50.130;8.710;2023-02-03T15:55:55;2.53;;;1.00;;
40953;SDS011;26686;50.130;8.710;2023-02-03T16:01:00;1.40;;;0.85;;
40953;SDS011;26686;50.130;8.710;2023-02-03T16:06:15;2.65;;;0.95;;
40953;SDS011;26686;50.130;8.710;2023-02-03T16:21:56;2.38;;;1.30;;
40953;SDS011;26686;50.130;8.710;2023-02-03T16:32:26;2.50;;;1.00;;
40953;SDS011;26686;50.130;8.710;2023-02-03T16:37:46;1.55;;;1.08;;
40953;SDS011;26686;50.130;8.710;2023-02-03T16:43:10;2.22;;;1.50;;
40953;SDS011;26686;50.130;8.710;2023-02-03T16:48:32;3.92;;;1.50;;
40953;SDS011;26686;50.130;8.710;2023-02-03T16:53:52;2.55;;;1.15;;
40953;SDS011;26686;50.130;8.710;2023-02-03T16:58:54;2.25;;;1.50;;
40953;SDS011;26686;50.130;8.710;2023-02-03T17:03:55;1.75;;;1.60;;
40953;SDS011;26686;50.130;8.710;2023-02-03T17:08:56;3.95;;;1.95;;
40953;SDS011;26686;50.130;8.710;2023-02-03T17:13:59;2.33;;;1.75;;
40953;SDS011;26686;50.130;8.710;2023-02-03T17:19:00;2.70;;;1.70;;
40953;SDS011;26686;50.130;8.710;2023-02-03T17:24:02;3.80;;;1.58;;
40953;SDS011;26686;50.130;8.710;2023-02-03T17:29:03;2.70;;;1.98;;
40953;SDS011;26686;50.130;8.710;2023-02-03T17:34:05;2.65;;;2.25;;
40953;SDS011;26686;50.130;8.710;2023-02-03T17:39:06;3.15;;;2.38;;
40953;SDS011;26686;50.130;8.710;2023-02-03T17:44:25;4.32;;;2.63;;
40953;SDS011;26686;50.130;8.710;2023-02-03T17:49:45;3.28;;;2.95;;
40953;SDS011;26686;50.130;8.710;2023-02-03T17:55:07;5.25;;;3.97;;
40953;SDS011;26686;50.130;8.710;2023-02-03T18:00:09;7.85;;;4.28;;
40953;SDS011;26686;50.130;8.710;2023-02-03T18:05:11;5.60;;;3.83;;
40953;SDS011;26686;50.130;8.710;2023-02-03T18:10:12;6.65;;;4.03;;
40953;SDS011;26686;50.130;8.710;2023-02-03T18:15:14;6.10;;;3.95;;
40953;SDS011;26686;50.130;8.710;2023-02-03T18:20:15;6.03;;;4.35;;
40953;SDS011;26686;50.130;8.710;2023-02-03T18:25:16;5.20;;;3.38;;
40953;SDS011;26686;50.130;8.710;2023-02-03T18:30:18;4.65;;;2.85;;
40953;SDS011;26686;50.130;8.710;2023-02-03T18:35:21;6.07;;;2.90;;
40953;SDS011;26686;50.130;8.710;2023-02-03T18:40:23;8.18;;;2.95;;
40953;SDS011;26686;50.130;8.710;2023-02-03T18:45:25;10.05;;;3.35;;
40953;SDS011;26686;50.130;8.710;2023-02-03T18:50:27;10.68;;;3.83;;
40953;SDS011;26686;50.130;8.710;2023-02-03T18:55:29;9.02;;;2.40;;
40953;SDS011;26686;50.130;8.710;2023-02-03T19:00:30;10.65;;;3.00;;
40953;SDS011;26686;50.130;8.710;2023-02-03T19:05:32;10.18;;;2.47;;
40953;SDS011;26686;50.130;8.710;2023-02-03T19:10:34;6.00;;;2.67;;
40953;SDS011;26686;50.130;8.710;2023-02-03T19:15:36;9.25;;;3.03;;
40953;SDS011;26686;50.130;8.710;2023-02-03T19:20:37;11.50;;;3.88;;
40953;SDS011;26686;50.130;8.710;2023-02-03T19:25:39;14.20;;;4.00;;
40953;SDS011;26686;50.130;8.710;2023-02-03T19:30:40;10.20;;;3.20;;
40953;SDS011;26686;50.130;8.710;2023-02-03T19:35:42;12.00;;;3.28;;
40953;SDS011;26686;50.130;8.710;2023-02-03T19:40:44;14.82;;;4.35;;
40953;SDS011;26686;50.130;8.710;2023-02-03T19:45:45;15.18;;;4.35;;
40953;SDS011;26686;50.130;8.710;2023-02-03T19:50:47;12.80;;;3.42;;
40953;SDS011;26686;50.130;8.710;2023-02-03T19:55:48;12.70;;;4.05;;
40953;SDS011;26686;50.130;8.710;2023-02-03T20:00:50;14.02;;;3.28;;
40953;SDS011;26686;50.130;8.710;2023-02-03T20:05:52;7.78;;;2.90;;
40953;SDS011;26686;50.130;8.710;2023-02-03T20:10:53;9.43;;;3.75;;
40953;SDS011;26686;50.130;8.710;2023-02-03T20:15:55;11.18;;;3.40;;
40953;SDS011;26686;50.130;8.710;2023-02-03T20:20:56;10.85;;;4.45;;
40953;SDS011;26686;50.130;8.710;2023-02-03T20:25:59;9.93;;;3.33;;
40953;SDS011;26686;50.130;8.710;2023-02-03T20:31:01;13.30;;;3.78;;
40953;SDS011;26686;50.130;8.710;2023-02-03T20:36:04;10.65;;;3.25;;
40953;SDS011;26686;50.130;8.710;2023-02-03T20:41:12;9.73;;;3.22;;
40953;SDS011;26686;50.130;8.710;2023-02-03T20:46:17;9.18;;;2.85;;
40953;SDS011;26686;50.130;8.710;2023-02-03T20:51:19;15.50;;;4.18;;
40953;SDS011;26686;50.130;8.710;2023-02-03T20:56:22;5.82;;;2.92;;
40953;SDS011;26686;50.130;8.710;2023-02-03T21:01:24;10.90;;;3.72;;
40953;SDS011;26686;50.130;8.710;2023-02-03T21:06:25;6.72;;;2.75;;
40953;SDS011;26686;50.130;8.710;2023-02-03T21:11:28;8.18;;;3.55;;
40953;SDS011;26686;50.130;8.710;2023-02-03T21:16:39;12.00;;;3.38;;
40953;SDS011;26686;50.130;8.710;2023-02-03T21:21:41;10.23;;;3.72;;
40953;SDS011;26686;50.130;8.710;2023-02-03T21:26:42;8.25;;;3.45;;
40953;SDS011;26686;50.130;8.710;2023-02-03T21:31:44;10.65;;;3.40;;
40953;SDS011;26686;50.130;8.710;2023-02-03T21:36:45;8.48;;;3.58;;
40953;SDS011;26686;50.130;8.710;2023-02-03T21:41:46;16.13;;;4.18;;
40953;SDS011;26686;50.130;8.710;2023-02-03T21:46:48;12.10;;;4.10;;
40953;SDS011;26686;50.130;8.710;2023-02-03T21:51:49;14.25;;;4.05;;
40953;SDS011;26686;50.130;8.710;2023-02-03T21:56:51;15.18;;;4.25;;
40953;SDS011;26686;50.130;8.710;2023-02-03T22:01:54;12.02;;;3.25;;
40953;SDS011;26686;50.130;8.710;2023-02-03T22:06:58;11.88;;;4.30;;
40953;SDS011;26686;50.130;8.710;2023-02-03T22:12:00;13.35;;;3.67;;
40953;SDS011;26686;50.130;8.710;2023-02-03T22:17:01;12.35;;;4.20;;
40953;SDS011;26686;50.130;8.710;2023-02-03T22:22:03;13.90;;;3.30;;
40953;SDS011;26686;50.130;8.710;2023-02-03T22:27:04;12.63;;;3.40;;
40953;SDS011;26686;50.130;8.710;2023-02-03T22:32:06;7.95;;;2.78;;
40953;SDS011;26686;50.130;8.710;2023-02-03T22:37:07;13.45;;;3.40;;
40953;SDS011;26686;50.130;8.710;2023-02-03T22:42:09;10.45;;;2.80;;
40953;SDS011;26686;50.130;8.710;2023-02-03T22:47:10;8.73;;;2.75;;
40953;SDS011;26686;50.130;8.710;2023-02-03T22:52:12;7.72;;;2.67;;
40953;SDS011;26686;50.130;8.710;2023-02-03T22:57:13;10.13;;;2.75;;
40953;SDS011;26686;50.130;8.710;2023-02-03T23:02:15;7.30;;;2.88;;
40953;SDS011;26686;50.130;8.710;2023-02-03T23:07:17;6.07;;;3.13;;
40953;SDS011;26686;50.130;8.710;2023-02-03T23:12:18;9.48;;;2.65;;
40953;SDS011;26686;50.130;8.710;2023-02-03T23:17:20;9.85;;;3.83;;
40953;SDS011;26686;50.130;8.710;2023-02-03T23:22:21;9.50;;;3.50;;
40953;SDS011;26686;50.130;8.710;2023-02-03T23:27:23;7.78;;;3.08;;
40953;SDS011;26686;50.130;8.710;2023-02-03T23:32:24;12.07;;;3.65;;
40953;SDS011;26686;50.130;8.710;2023-02-03T23:37:26;8.40;;;2.75;;
40953;SDS011;26686;50.130;8.710;2023-02-03T23:42:27;7.57;;;3.85;;
40953;SDS011;26686;50.130;8.710;2023-02-03T23:47:29;7.03;;;2.85;;
40953;SDS011;26686;50.130;8.710;2023-02-03T23:52:30;8.60;;;3.00;;
40953;SDS011;26686;50.130;8.710;2023-02-03T23:57:35;8.55;;;3.75;;
